Chrisanthi — SX7108 — position and weather

sailwx.info

Track history (hours):
 
Tides and Currents Weather Stations Pressure Air Temp Water Temp Dewpoint Dewpoint Depression Visibility Wind Speed Wind Dir Waves Ship Positions

Chrisanthi

Last reported at 2015-Jul-03 02:24 UTC. Time now 2015-Jul-03 02:41 UTC.
Position N 36°50' E 025°21'.

Length 56 m; draft 3.9 m.

Type: Tanker. MMSI: 237009100.

Date/timePositionNaut miles runAvg speedWind from/ knotsBaromVisibWave heightAir tempDewpointWater temp
2015-Jul-03 02:24N 36°50' E 025°21'910.3
2015-Jul-03 01:29N 36°59' E 025°18'8 8.4
2015-Jul-03 00:33N 37°06' E 025°22'0 0.1
2015-Jul-02 23:33N 37°06' E 025°22'3 3.0
2015-Jul-02 22:34N 37°08' E 025°20'9 8.8
2015-Jul-02 21:33N 37°07' E 025°09'2 0.6
2015-Jul-02 18:05N 37°05' E 025°09'0 0.1
2015-Jul-02 17:32N 37°05' E 025°09'1 0.5
2015-Jul-02 16:32N 37°06' E 025°08'7 7.6
2015-Jul-02 15:33N 37°11' E 025°02'10 9.9
2015-Jul-02 14:34N 37°18' E 024°53'58 9.2
2015-Jul-02 08:12N 37°39' E 023°45'710.1
2015-Jul-02 07:33N 37°44' E 023°39'10 9.8
2015-Jul-02 06:33N 37°50' E 023°29'19 5.6
2015-Jul-02 03:05N 37°55' E 023°05'1 0.0
2015-Jul-01 13:09N 37°55' E 023°06'1 0.0
2015-Jun-30 05:25N 37°54' E 023°08'1010.7
2015-Jun-30 04:29N 37°52' E 023°20'1010.8
2015-Jun-30 03:33N 37°50' E 023°32'9 9.2
2015-Jun-30 02:33N 37°45' E 023°42'5310.5
2015-Jun-29 21:27N 37°24' E 024°44'1011.4
2015-Jun-29 20:33N 37°20' E 024°55'1110.9
2015-Jun-29 19:33N 37°15' E 025°08'1110.7
2015-Jun-29 18:33N 37°09' E 025°19'3 3.5
2015-Jun-29 17:33N 37°06' E 025°22'0 0.3
2015-Jun-29 16:33N 37°06' E 025°22'0 0.0
2015-Jun-29 15:33N 37°06' E 025°22'5 4.8
2015-Jun-29 14:33N 37°10' E 025°18'9 9.4
2015-Jun-29 13:33N 37°05' E 025°07'1 1.0
2015-Jun-29 12:20N 37°05' E 025°09'0 0.0
2015-Jun-29 10:32N 37°05' E 025°09'0 0.4
2015-Jun-29 09:26N 37°05' E 025°09'0 0.0
2015-Jun-29 08:33N 37°06' E 025°09'0 0.0
2015-Jun-29 07:33N 37°06' E 025°09'0 0.4
2015-Jun-29 06:32N 37°05' E 025°09'3 2.7
2015-Jun-29 05:33N 37°04' E 025°06'29 8.6
2015-Jun-29 02:10N 36°36' E 025°16'610.4
2015-Jun-29 01:33N 36°31' E 025°20'9 8.9
2015-Jun-29 00:33N 36°23' E 025°26'0 0.0
2015-Jun-28 23:33N 36°23' E 025°26'0 0.0
2015-Jun-28 22:32N 36°23' E 025°26'0 0.0
2015-Jun-28 21:33N 36°23' E 025°26'0 0.0
2015-Jun-28 20:34N 36°23' E 025°26'0 0.0
2015-Jun-28 19:32N 36°23' E 025°26'0 0.0
2015-Jun-28 18:33N 36°23' E 025°26'0 0.0
2015-Jun-28 17:33N 36°23' E 025°26'0 0.0
2015-Jun-28 16:33N 36°23' E 025°26'2 2.0
2015-Jun-28 15:32N 36°23' E 025°23'0 0.0
2015-Jun-28 14:33N 36°23' E 025°23'0 0.0
2015-Jun-28 13:33N 36°23' E 025°23'1 1.1
2015-Jun-28 12:33N 36°24' E 025°25'30 5.0
2015-Jun-28 06:31N 36°54' E 025°31'5 2.3
2015-Jun-28 04:27N 36°56' E 025°36'8 8.4
2015-Jun-28 03:33N 36°49' E 025°40'10 9.7
2015-Jun-28 02:33N 36°45' E 025°51'1010.0
2015-Jun-28 01:31N 36°43' E 026°04'  
2015-Jun-25 06:33N 36°54' E 026°33'2410.5
2015-Jun-25 04:16N 36°48' E 026°04'810.3
2015-Jun-25 03:29N 36°46' E 025°54'910.0
2015-Jun-25 02:33N 36°46' E 025°43'1410.2
2015-Jun-25 01:13N 36°48' E 025°26'10 2.5
2015-Jun-24 21:09N 36°54' E 025°16'610.2
2015-Jun-24 20:33N 36°60' E 025°18'7 7.5
2015-Jun-24 19:33N 37°06' E 025°22'0 0.0
2015-Jun-24 18:33N 37°06' E 025°22'0 0.0
2015-Jun-24 17:33N 37°06' E 025°22'0 0.0
2015-Jun-24 16:33N 37°06' E 025°22'0 0.0
2015-Jun-24 15:33N 37°06' E 025°22'0 0.3
2015-Jun-24 14:33N 37°06' E 025°22'0 0.3
2015-Jun-24 13:33N 37°06' E 025°22'0 0.0
2015-Jun-24 12:33N 37°06' E 025°22'0 0.0
2015-Jun-24 11:33N 37°06' E 025°22'6 6.0
2015-Jun-24 10:33N 37°11' E 025°17'1010.4
2015-Jun-24 09:34N 37°15' E 025°05'1010.0
2015-Jun-24 08:33N 37°19' E 024°54'5510.2
2015-Jun-24 03:11N 37°38' E 023°49'610.1
2015-Jun-24 02:33N 37°41' E 023°41'1010.1
2015-Jun-24 01:33N 37°49' E 023°34'1010.3
2015-Jun-24 00:33N 37°52' E 023°21'  
Track history (hours):
 
Tides and Currents Weather Stations Pressure Air Temp Water Temp Dewpoint Dewpoint Depression Visibility Wind Speed Wind Dir Waves Ship Positions

Chrisanthi

Last reported at 2015-Jul-03 02:24 UTC. Time now 2015-Jul-03 02:41 UTC.
Position N 36°50' E 025°21'.

Length 56 m; draft 3.9 m.

Type: Tanker. MMSI: 237009100.

Date/timePositionNaut miles runAvg speedWind from/ knotsBaromVisibWave heightAir tempDewpointWater temp
2015-Jul-03 02:24N 36°50' E 025°21'910.3
2015-Jul-03 01:29N 36°59' E 025°18'8 8.4
2015-Jul-03 00:33N 37°06' E 025°22'0 0.1
2015-Jul-02 23:33N 37°06' E 025°22'3 3.0
2015-Jul-02 22:34N 37°08' E 025°20'9 8.8
2015-Jul-02 21:33N 37°07' E 025°09'2 0.6
2015-Jul-02 18:05N 37°05' E 025°09'0 0.1
2015-Jul-02 17:32N 37°05' E 025°09'1 0.5
2015-Jul-02 16:32N 37°06' E 025°08'7 7.6
2015-Jul-02 15:33N 37°11' E 025°02'10 9.9
2015-Jul-02 14:34N 37°18' E 024°53'58 9.2
2015-Jul-02 08:12N 37°39' E 023°45'710.1
2015-Jul-02 07:33N 37°44' E 023°39'10 9.8
2015-Jul-02 06:33N 37°50' E 023°29'19 5.6
2015-Jul-02 03:05N 37°55' E 023°05'1 0.0
2015-Jul-01 13:09N 37°55' E 023°06'1 0.0
2015-Jun-30 05:25N 37°54' E 023°08'1010.7
2015-Jun-30 04:29N 37°52' E 023°20'1010.8
2015-Jun-30 03:33N 37°50' E 023°32'9 9.2
2015-Jun-30 02:33N 37°45' E 023°42'5310.5
2015-Jun-29 21:27N 37°24' E 024°44'1011.4
2015-Jun-29 20:33N 37°20' E 024°55'1110.9
2015-Jun-29 19:33N 37°15' E 025°08'1110.7
2015-Jun-29 18:33N 37°09' E 025°19'3 3.5
2015-Jun-29 17:33N 37°06' E 025°22'0 0.3
2015-Jun-29 16:33N 37°06' E 025°22'0 0.0
2015-Jun-29 15:33N 37°06' E 025°22'5 4.8
2015-Jun-29 14:33N 37°10' E 025°18'9 9.4
2015-Jun-29 13:33N 37°05' E 025°07'1 1.0
2015-Jun-29 12:20N 37°05' E 025°09'0 0.0
2015-Jun-29 10:32N 37°05' E 025°09'0 0.4
2015-Jun-29 09:26N 37°05' E 025°09'0 0.0
2015-Jun-29 08:33N 37°06' E 025°09'0 0.0
2015-Jun-29 07:33N 37°06' E 025°09'0 0.4
2015-Jun-29 06:32N 37°05' E 025°09'3 2.7
2015-Jun-29 05:33N 37°04' E 025°06'29 8.6
2015-Jun-29 02:10N 36°36' E 025°16'610.4
2015-Jun-29 01:33N 36°31' E 025°20'9 8.9
2015-Jun-29 00:33N 36°23' E 025°26'0 0.0
2015-Jun-28 23:33N 36°23' E 025°26'0 0.0
2015-Jun-28 22:32N 36°23' E 025°26'0 0.0
2015-Jun-28 21:33N 36°23' E 025°26'0 0.0
2015-Jun-28 20:34N 36°23' E 025°26'0 0.0
2015-Jun-28 19:32N 36°23' E 025°26'0 0.0
2015-Jun-28 18:33N 36°23' E 025°26'0 0.0
2015-Jun-28 17:33N 36°23' E 025°26'0 0.0
2015-Jun-28 16:33N 36°23' E 025°26'2 2.0
2015-Jun-28 15:32N 36°23' E 025°23'0 0.0
2015-Jun-28 14:33N 36°23' E 025°23'0 0.0
2015-Jun-28 13:33N 36°23' E 025°23'1 1.1
2015-Jun-28 12:33N 36°24' E 025°25'30 5.0
2015-Jun-28 06:31N 36°54' E 025°31'5 2.3
2015-Jun-28 04:27N 36°56' E 025°36'8 8.4
2015-Jun-28 03:33N 36°49' E 025°40'10 9.7
2015-Jun-28 02:33N 36°45' E 025°51'1010.0
2015-Jun-28 01:31N 36°43' E 026°04'  
2015-Jun-25 06:33N 36°54' E 026°33'2410.5
2015-Jun-25 04:16N 36°48' E 026°04'810.3
2015-Jun-25 03:29N 36°46' E 025°54'910.0
2015-Jun-25 02:33N 36°46' E 025°43'1410.2
2015-Jun-25 01:13N 36°48' E 025°26'10 2.5
2015-Jun-24 21:09N 36°54' E 025°16'610.2
2015-Jun-24 20:33N 36°60' E 025°18'7 7.5
2015-Jun-24 19:33N 37°06' E 025°22'0 0.0
2015-Jun-24 18:33N 37°06' E 025°22'0 0.0
2015-Jun-24 17:33N 37°06' E 025°22'0 0.0
2015-Jun-24 16:33N 37°06' E 025°22'0 0.0
2015-Jun-24 15:33N 37°06' E 025°22'0 0.3
2015-Jun-24 14:33N 37°06' E 025°22'0 0.3
2015-Jun-24 13:33N 37°06' E 025°22'0 0.0
2015-Jun-24 12:33N 37°06' E 025°22'0 0.0
2015-Jun-24 11:33N 37°06' E 025°22'6 6.0
2015-Jun-24 10:33N 37°11' E 025°17'1010.4
2015-Jun-24 09:34N 37°15' E 025°05'1010.0
2015-Jun-24 08:33N 37°19' E 024°54'5510.2
2015-Jun-24 03:11N 37°38' E 023°49'610.1
2015-Jun-24 02:33N 37°41' E 023°41'1010.1
2015-Jun-24 01:33N 37°49' E 023°34'1010.3
2015-Jun-24 00:33N 37°52' E 023°21'  

Dump ship's entire track history